Terminal Aerodrome Forecast
Issued by NWS Charleston, SC

Home | Current Version | Previous Version | Text Only | Print | Product List | Glossary On
Versions: 1 2 3 4 5 6 7 8 9 10 11 12
000
FTUS42 KCHS 270520
TAFSAV
TAF
KSAV 270520Z 2706/2806 14003KT P6SM FEW200
      TEMPO 2708/2712 00000KT 4SM BR FEW200
     FM271300 19007KT P6SM SCT035
     FM272000 16010KT P6SM SCT040 SCT250
     FM280100 15004KT P6SM SCT060=

USA.gov is the U.S. government's official web portal to all federal, state and local government web resources and services.